Time,TemperatureF,DewpointF,PressureIn,WindDirection,WindDirectionDegrees,WindSpeedMPH,WindSpeedGustMPH,Humidity,HourlyPrecipIn,Conditions,Clouds,dailyrainin,SolarRadiationWatts/m^2,SoftwareType,DateUTC
2017-09-19 00:00:00,59.2,37.3,29.87,NNE,18,0.0,4.0,44,0.00,,,0.00,0.00,VWS V15.00,2017-09-19 07:00:00,
2017-09-19 00:05:00,59.2,37.3,29.86,NNE,18,0.0,0.0,44,0.00,,,0.00,0.00,VWS V15.00,2017-09-19 07:05:00,
2017-09-19 00:10:00,59.2,37.3,29.87,NNE,18,0.0,0.0,44,0.00,,,0.00,0.00,VWS V15.00,2017-09-19 07:10:00,
2017-09-19 00:15:00,59.2,37.3,29.87,NNE,18,0.0,0.0,44,0.00,,,0.00,0.00,VWS V15.00,2017-09-19 07:15:00,
2017-09-19 00:20:00,59.2,37.3,29.86,NNE,18,0.0,0.0,44,0.00,,,0.00,0.00,VWS V15.00,2017-09-19 07:20:00,
2017-09-19 00:25:00,59.2,37.3,29.86,NNE,18,0.0,0.0,44,0.00,,,0.00,0.00,VWS V15.00,2017-09-19 07:25:00,
2017-09-19 00:30:00,59.2,37.3,29.86,NNE,18,0.0,0.0,44,0.00,,,0.00,0.00,VWS V15.00,2017-09-19 07:30:00,
2017-09-19 00:35:00,59.2,37.3,29.87,NNE,18,0.0,0.0,44,0.00,,,0.00,0.00,VWS V15.00,2017-09-19 07:35:00,
2017-09-19 00:40:00,59.2,37.3,29.86,NNE,18,0.0,0.0,44,0.00,,,0.00,0.00,VWS V15.00,2017-09-19 07:40:00,
2017-09-19 00:45:00,58.3,37.1,29.86,WSW,245,0.0,0.0,45,0.00,,,0.00,0.00,VWS V15.00,2017-09-19 07:45:00,
2017-09-19 00:50:00,58.2,37.0,29.86,WSW,245,0.0,0.0,45,0.00,,,0.00,0.00,VWS V15.00,2017-09-19 07:50:00,
2017-09-19 00:55:00,58.3,36.5,29.86,WSW,246,0.0,0.0,44,0.00,,,0.00,0.00,VWS V15.00,2017-09-19 07:55:00,
2017-09-19 01:00:00,58.2,36.4,29.86,WSW,246,0.0,0.0,44,0.00,,,0.00,0.00,VWS V15.00,2017-09-19 08:00:00,
2017-09-19 01:05:00,58.0,36.2,29.86,WSW,246,0.0,0.0,44,0.00,,,0.00,0.00,VWS V15.00,2017-09-19 08:05:00,
2017-09-19 01:10:00,58.0,36.2,29.86,WSW,246,0.0,0.0,44,0.00,,,0.00,0.00,VWS V15.00,2017-09-19 08:10:00,
2017-09-19 01:15:00,58.1,36.3,29.86,West,273,4.0,4.0,44,0.00,,,0.00,0.00,VWS V15.00,2017-09-19 08:15:00,
2017-09-19 01:20:00,58.2,36.4,29.86,West,273,0.0,1.0,44,0.00,,,0.00,0.00,VWS V15.00,2017-09-19 08:20:00,
2017-09-19 01:25:00,57.6,35.9,29.87,WNW,292,0.0,5.0,44,0.00,,,0.00,0.00,VWS V15.00,2017-09-19 08:25:00,
2017-09-19 01:30:00,57.1,36.0,29.87,WNW,293,2.0,5.0,45,0.00,,,0.00,0.00,VWS V15.00,2017-09-19 08:30:00,
2017-09-19 01:35:00,56.7,36.2,29.87,WNW,293,0.0,4.0,46,0.00,,,0.00,0.00,VWS V15.00,2017-09-19 08:35:00,
2017-09-19 01:40:00,56.8,36.3,29.87,NW,306,3.0,5.0,46,0.00,,,0.00,0.00,VWS V15.00,2017-09-19 08:40:00,
2017-09-19 01:45:00,57.5,36.3,29.87,NW,307,0.0,5.0,45,0.00,,,0.00,0.00,VWS V15.00,2017-09-19 08:45:00,
2017-09-19 01:50:00,57.6,35.9,29.87,NW,307,0.0,0.0,44,0.00,,,0.00,0.00,VWS V15.00,2017-09-19 08:50:00,
2017-09-19 01:55:00,57.6,35.9,29.88,NW,307,0.0,0.0,44,0.00,,,0.00,0.00,VWS V15.00,2017-09-19 08:55:00,
2017-09-19 02:00:00,57.2,36.1,29.88,NW,307,0.0,0.0,45,0.00,,,0.00,0.00,VWS V15.00,2017-09-19 09:00:00,
2017-09-19 02:05:00,57.0,36.4,29.87,NW,307,0.0,0.0,46,0.00,,,0.00,0.00,VWS V15.00,2017-09-19 09:05:00,
2017-09-19 02:10:00,56.8,36.8,29.87,NW,307,0.0,0.0,47,0.00,,,0.00,0.00,VWS V15.00,2017-09-19 09:10:00,
2017-09-19 02:15:00,56.4,36.4,29.87,NW,307,0.0,0.0,47,0.00,,,0.00,0.00,VWS V15.00,2017-09-19 09:15:00,
2017-09-19 02:20:00,56.0,36.6,29.88,NW,307,0.0,0.0,48,0.00,,,0.00,0.00,VWS V15.00,2017-09-19 09:20:00,
2017-09-19 02:25:00,55.4,36.6,29.88,NW,307,0.0,0.0,49,0.00,,,0.00,0.00,VWS V15.00,2017-09-19 09:25:00,
2017-09-19 02:30:00,55.2,36.4,29.88,NW,307,0.0,0.0,49,0.00,,,0.00,0.00,VWS V15.00,2017-09-19 09:30:00,
2017-09-19 02:35:00,54.7,36.4,29.88,NW,307,0.0,0.0,50,0.00,,,0.00,0.00,VWS V15.00,2017-09-19 09:35:00,
2017-09-19 02:40:00,54.1,35.9,29.88,NW,307,0.0,4.0,50,0.00,,,0.00,0.00,VWS V15.00,2017-09-19 09:40:00,
2017-09-19 02:45:00,53.9,36.2,29.88,NW,307,0.0,4.0,51,0.00,,,0.00,0.00,VWS V15.00,2017-09-19 09:45:00,
2017-09-19 02:50:00,53.3,35.7,29.88,NW,307,0.0,0.0,51,0.00,,,0.00,0.00,VWS V15.00,2017-09-19 09:50:00,
2017-09-19 02:55:00,52.8,35.7,29.88,NW,307,0.0,0.0,52,0.00,,,0.00,0.00,VWS V15.00,2017-09-19 09:55:00,
2017-09-19 03:00:00,52.1,36.0,29.88,NW,307,0.0,0.0,54,0.00,,,0.00,0.00,VWS V15.00,2017-09-19 10:00:00,
2017-09-19 03:05:00,51.2,36.1,29.88,NW,307,0.0,0.0,56,0.00,,,0.00,0.00,VWS V15.00,2017-09-19 10:05:00,
2017-09-19 03:10:00,50.9,35.8,29.88,NW,307,0.0,0.0,56,0.00,,,0.00,0.00,VWS V15.00,2017-09-19 10:10:00,
2017-09-19 03:15:00,50.6,35.9,29.88,NW,307,0.0,0.0,57,0.00,,,0.00,0.00,VWS V15.00,2017-09-19 10:15:00,
2017-09-19 03:20:00,50.6,35.9,29.88,NW,307,0.0,0.0,57,0.00,,,0.00,0.00,VWS V15.00,2017-09-19 10:20:00,
2017-09-19 03:25:00,50.4,35.8,29.88,NW,307,0.0,0.0,57,0.00,,,0.00,0.00,VWS V15.00,2017-09-19 10:25:00,
2017-09-19 03:30:00,50.1,35.5,29.89,NW,307,0.0,0.0,57,0.00,,,0.00,0.00,VWS V15.00,2017-09-19 10:30:00,
2017-09-19 03:35:00,50.0,35.8,29.89,NW,307,0.0,1.0,58,0.00,,,0.00,0.00,VWS V15.00,2017-09-19 10:35:00,
2017-09-19 03:40:00,50.7,36.0,29.89,NW,319,0.0,5.0,57,0.00,,,0.00,0.00,VWS V15.00,2017-09-19 10:40:00,
2017-09-19 03:45:00,51.5,35.9,29.89,NW,320,0.0,5.0,55,0.00,,,0.00,0.00,VWS V15.00,2017-09-19 10:45:00,
2017-09-19 03:50:00,52.3,36.2,29.89,NNW,336,3.0,7.0,54,0.00,,,0.00,0.00,VWS V15.00,2017-09-19 10:50:00,
2017-09-19 03:55:00,52.7,36.1,29.89,NNW,336,0.0,7.0,53,0.00,,,0.00,0.00,VWS V15.00,2017-09-19 10:55:00,
2017-09-19 04:00:00,53.3,35.7,29.89,NNW,348,5.0,8.0,51,0.00,,,0.00,0.00,VWS V15.00,2017-09-19 11:00:00,
2017-09-19 04:05:00,54.8,35.5,29.89,North,355,4.0,10.0,48,0.00,,,0.00,0.00,VWS V15.00,2017-09-19 11:05:00,
2017-09-19 04:10:00,55.0,34.6,29.89,NNW,345,5.0,10.0,46,0.00,,,0.00,0.00,VWS V15.00,2017-09-19 11:10:00,
2017-09-19 04:15:00,55.2,34.2,29.89,NNW,328,0.0,10.0,45,0.00,,,0.00,0.00,VWS V15.00,2017-09-19 11:15:00,
2017-09-19 04:20:00,55.0,34.1,29.89,NW,325,0.0,6.0,45,0.00,,,0.00,0.00,VWS V15.00,2017-09-19 11:20:00,
2017-09-19 04:25:00,54.6,34.2,29.89,NNW,330,1.0,6.0,46,0.00,,,0.00,0.00,VWS V15.00,2017-09-19 11:25:00,
2017-09-19 04:30:00,54.4,34.1,29.90,NW,313,6.0,7.0,46,0.00,,,0.00,0.00,VWS V15.00,2017-09-19 11:30:00,
2017-09-19 04:35:00,54.3,34.0,29.90,NW,326,4.0,9.0,46,0.00,,,0.00,0.00,VWS V15.00,2017-09-19 11:35:00,
2017-09-19 04:41:00,54.3,34.0,29.90,NNW,331,9.0,9.0,46,0.00,,,0.00,0.00,VWS V15.00,2017-09-19 11:41:00,
2017-09-19 04:46:00,54.2,33.9,29.90,NNW,344,5.0,9.0,46,0.00,,,0.00,0.00,VWS V15.00,2017-09-19 11:46:00,
2017-09-19 04:51:00,53.9,33.6,29.90,NNW,347,3.0,6.0,46,0.00,,,0.00,0.00,VWS V15.00,2017-09-19 11:51:00,
2017-09-19 04:56:00,53.4,33.7,29.90,North,355,3.0,7.0,47,0.00,,,0.00,0.00,VWS V15.00,2017-09-19 11:56:00,
2017-09-19 05:01:00,53.3,34.1,29.91,NNW,331,1.0,7.0,48,0.00,,,0.00,0.00,VWS V15.00,2017-09-19 12:01:00,
2017-09-19 05:06:00,53.1,34.0,29.91,North,5,2.0,6.0,48,0.00,,,0.00,0.00,VWS V15.00,2017-09-19 12:06:00,
2017-09-19 05:11:00,53.3,34.1,29.91,North,351,0.0,9.0,48,0.00,,,0.00,0.00,VWS V15.00,2017-09-19 12:11:00,
2017-09-19 05:16:00,53.5,34.3,29.91,NNW,329,8.0,9.0,48,0.00,,,0.00,0.00,VWS V15.00,2017-09-19 12:16:00,
2017-09-19 05:21:00,54.2,36.5,29.91,NNW,347,5.0,10.0,51,0.00,,,0.00,0.00,VWS V15.00,2017-09-19 12:21:00,
2017-09-19 05:26:00,54.3,36.6,29.91,NW,317,3.0,10.0,51,0.00,,,0.00,0.00,VWS V15.00,2017-09-19 12:26:00,
2017-09-19 05:31:00,54.4,37.2,29.92,NNE,12,0.0,10.0,52,0.00,,,0.00,0.00,VWS V15.00,2017-09-19 12:31:00,
2017-09-19 05:36:00,54.4,37.2,29.92,NNW,342,1.0,5.0,52,0.00,,,0.00,0.00,VWS V15.00,2017-09-19 12:36:00,
2017-09-19 05:41:00,54.2,37.0,29.92,NNW,342,0.0,5.0,52,0.00,,,0.00,0.00,VWS V15.00,2017-09-19 12:41:00,
2017-09-19 05:46:00,54.1,36.9,29.93,North,5,0.0,5.0,52,0.00,,,0.00,0.00,VWS V15.00,2017-09-19 12:46:00,
2017-09-19 05:51:00,53.7,36.0,29.93,North,5,0.0,3.0,51,0.00,,,0.00,0.00,VWS V15.00,2017-09-19 12:51:00,
2017-09-19 05:56:00,53.1,35.5,29.93,North,5,0.0,3.0,51,0.00,,,0.00,0.00,VWS V15.00,2017-09-19 12:56:00,
2017-09-19 06:01:00,52.7,35.6,29.93,North,9,0.0,3.0,52,0.00,,,0.00,0.00,VWS V15.00,2017-09-19 13:01:00,
2017-09-19 06:06:00,52.4,35.3,29.93,North,5,0.0,0.0,52,0.00,,,0.00,0.00,VWS V15.00,2017-09-19 13:06:00,
2017-09-19 06:11:00,52.2,35.6,29.94,North,5,0.0,0.0,53,0.00,,,0.00,0.00,VWS V15.00,2017-09-19 13:11:00,
2017-09-19 06:16:00,51.7,35.1,29.94,North,5,0.0,0.0,53,0.00,,,0.00,0.00,VWS V15.00,2017-09-19 13:16:00,
2017-09-19 06:21:00,51.3,35.2,29.94,North,5,0.0,0.0,54,0.00,,,0.00,0.00,VWS V15.00,2017-09-19 13:21:00,
2017-09-19 06:26:00,51.2,35.1,29.94,North,5,0.0,0.0,54,0.00,,,0.00,0.00,VWS V15.00,2017-09-19 13:26:00,
2017-09-19 06:31:00,50.9,34.9,29.94,North,5,0.0,0.0,54,0.00,,,0.00,0.00,VWS V15.00,2017-09-19 13:31:00,
2017-09-19 06:36:00,50.5,35.0,29.94,North,5,0.0,0.0,55,0.00,,,0.00,0.00,VWS V15.00,2017-09-19 13:36:00,
2017-09-19 06:41:00,50.3,34.8,29.94,North,5,0.0,0.0,55,0.00,,,0.00,0.00,VWS V15.00,2017-09-19 13:41:00,
2017-09-19 06:46:00,50.0,34.9,29.94,North,5,0.0,0.0,56,0.00,,,0.00,7.00,VWS V15.00,2017-09-19 13:46:00,
2017-09-19 06:51:00,49.5,35.3,29.94,North,5,0.0,0.0,58,0.00,,,0.00,11.00,VWS V15.00,2017-09-19 13:51:00,
2017-09-19 06:56:00,49.6,35.5,29.94,North,5,0.0,0.0,58,0.00,,,0.00,14.00,VWS V15.00,2017-09-19 13:56:00,
2017-09-19 07:01:00,49.7,35.1,29.94,North,5,0.0,0.0,57,0.00,,,0.00,21.00,VWS V15.00,2017-09-19 14:01:00,
2017-09-19 07:06:00,49.9,34.8,29.94,North,5,0.0,1.0,56,0.00,,,0.00,25.00,VWS V15.00,2017-09-19 14:06:00,
2017-09-19 07:11:00,50.4,34.9,29.95,NNW,348,0.0,3.0,55,0.00,,,0.00,33.00,VWS V15.00,2017-09-19 14:11:00,
2017-09-19 07:16:00,51.3,34.8,29.95,NNW,344,7.0,8.0,53,0.00,,,0.00,42.00,VWS V15.00,2017-09-19 14:16:00,
2017-09-19 07:21:00,52.7,34.6,29.95,North,351,4.0,7.0,50,0.00,,,0.00,49.00,VWS V15.00,2017-09-19 14:21:00,
2017-09-19 07:26:00,53.1,34.5,29.96,NNW,328,4.0,7.0,49,0.00,,,0.00,63.00,VWS V15.00,2017-09-19 14:26:00,
2017-09-19 07:31:00,53.6,33.9,29.95,North,350,5.0,8.0,47,0.00,,,0.00,90.00,VWS V15.00,2017-09-19 14:31:00,
2017-09-19 07:36:00,54.9,32.3,29.96,NW,313,8.0,12.0,42,0.00,,,0.00,98.00,VWS V15.00,2017-09-19 14:36:00,
2017-09-19 07:41:00,55.5,34.0,29.96,NNW,327,5.0,12.0,44,0.00,,,0.00,125.00,VWS V15.00,2017-09-19 14:41:00,
2017-09-19 07:46:00,55.5,33.4,29.95,NNW,329,1.0,12.0,43,0.00,,,0.00,130.00,VWS V15.00,2017-09-19 14:46:00,
2017-09-19 07:51:00,55.7,33.6,29.95,NNW,344,0.0,8.0,43,0.00,,,0.00,149.00,VWS V15.00,2017-09-19 14:51:00,
2017-09-19 07:56:00,55.9,32.6,29.95,NW,308,0.0,11.0,41,0.00,,,0.00,167.00,VWS V15.00,2017-09-19 14:56:00,
2017-09-19 08:01:00,56.3,32.3,29.95,NW,320,4.0,15.0,40,0.00,,,0.00,195.00,VWS V15.00,2017-09-19 15:01:00,
2017-09-19 08:06:00,56.6,32.0,29.96,NNW,335,4.0,12.0,39,0.00,,,0.00,155.00,VWS V15.00,2017-09-19 15:06:00,
2017-09-19 08:11:00,56.6,32.0,29.96,NW,325,6.0,12.0,39,0.00,,,0.00,232.00,VWS V15.00,2017-09-19 15:11:00,
2017-09-19 08:16:00,56.9,32.2,29.96,WNW,290,8.0,12.0,39,0.00,,,0.00,253.00,VWS V15.00,2017-09-19 15:16:00,
2017-09-19 08:21:00,57.1,33.0,29.96,NNW,336,3.0,12.0,40,0.00,,,0.00,269.00,VWS V15.00,2017-09-19 15:21:00,
2017-09-19 08:26:00,57.5,32.8,29.96,NNW,338,6.0,12.0,39,0.00,,,0.00,287.00,VWS V15.00,2017-09-19 15:26:00,
2017-09-19 08:31:00,57.8,32.4,29.96,WNW,298,6.0,12.0,38,0.00,,,0.00,301.00,VWS V15.00,2017-09-19 15:31:00,
2017-09-19 08:36:00,58.1,32.7,29.97,NNW,337,2.0,9.0,38,0.00,,,0.00,304.00,VWS V15.00,2017-09-19 15:36:00,
2017-09-19 08:41:00,58.3,32.8,29.97,NNE,13,0.0,9.0,38,0.00,,,0.00,325.00,VWS V15.00,2017-09-19 15:41:00,
2017-09-19 08:46:00,58.6,32.4,29.97,NE,53,5.0,9.0,37,0.00,,,0.00,281.00,VWS V15.00,2017-09-19 15:46:00,
2017-09-19 08:51:00,58.7,33.8,29.97,NE,36,4.0,5.0,39,0.00,,,0.00,350.00,VWS V15.00,2017-09-19 15:51:00,
2017-09-19 08:56:00,58.8,35.2,29.98,NNE,26,7.0,7.0,41,0.00,,,0.00,376.00,VWS V15.00,2017-09-19 15:56:00,
2017-09-19 09:01:00,58.6,36.2,29.98,NE,35,5.0,12.0,43,0.00,,,0.00,387.00,VWS V15.00,2017-09-19 16:01:00,
2017-09-19 09:06:00,58.5,36.7,29.98,NE,56,2.0,11.0,44,0.00,,,0.00,404.00,VWS V15.00,2017-09-19 16:06:00,
2017-09-19 09:11:00,58.6,36.2,29.98,NNE,33,8.0,12.0,43,0.00,,,0.00,396.00,VWS V15.00,2017-09-19 16:11:00,
2017-09-19 09:16:00,58.5,36.1,29.98,NNE,24,8.0,12.0,43,0.00,,,0.00,431.00,VWS V15.00,2017-09-19 16:16:00,
2017-09-19 09:21:00,59.0,36.0,29.99,ENE,71,4.0,12.0,42,0.00,,,0.00,438.00,VWS V15.00,2017-09-19 16:21:00,
2017-09-19 09:26:00,59.3,35.6,29.99,NNE,32,9.0,14.0,41,0.00,,,0.00,443.00,VWS V15.00,2017-09-19 16:26:00,
2017-09-19 09:31:00,58.8,35.2,29.99,NE,38,4.0,14.0,41,0.00,,,0.00,469.00,VWS V15.00,2017-09-19 16:31:00,
2017-09-19 09:36:00,58.9,35.3,29.99,NNE,25,2.0,9.0,41,0.00,,,0.00,473.00,VWS V15.00,2017-09-19 16:36:00,
2017-09-19 09:41:00,59.2,35.5,29.99,NNE,29,6.0,9.0,41,0.00,,,0.00,489.00,VWS V15.00,2017-09-19 16:41:00,
2017-09-19 09:46:00,59.5,35.8,29.99,NNE,26,1.0,9.0,41,0.00,,,0.00,510.00,VWS V15.00,2017-09-19 16:46:00,
2017-09-19 09:51:00,59.9,35.5,29.99,NNE,32,4.0,10.0,40,0.00,,,0.00,531.00,VWS V15.00,2017-09-19 16:51:00,
2017-09-19 09:56:00,60.3,35.9,29.99,NNW,329,0.0,10.0,40,0.00,,,0.00,534.00,VWS V15.00,2017-09-19 16:56:00,
2017-09-19 10:01:00,60.5,34.8,29.99,North,355,1.0,2.0,38,0.00,,,0.00,541.00,VWS V15.00,2017-09-19 17:01:00,
2017-09-19 10:06:00,60.4,35.3,29.99,North,355,12.0,13.0,39,0.00,,,0.00,534.00,VWS V15.00,2017-09-19 17:06:00,
2017-09-19 10:11:00,60.7,35.6,29.99,North,355,2.0,13.0,39,0.00,,,0.00,554.00,VWS V15.00,2017-09-19 17:11:00,
2017-09-19 10:16:00,61.1,33.3,29.99,NW,321,9.0,13.0,35,0.00,,,0.00,587.00,VWS V15.00,2017-09-19 17:16:00,
2017-09-19 10:21:00,61.1,33.3,29.99,NNW,332,3.0,13.0,35,0.00,,,0.00,601.00,VWS V15.00,2017-09-19 17:21:00,
2017-09-19 10:26:00,61.2,34.1,29.99,NW,319,8.0,13.0,36,0.00,,,0.00,613.00,VWS V15.00,2017-09-19 17:26:00,
2017-09-19 10:31:00,61.5,34.3,29.99,NNW,345,8.0,13.0,36,0.00,,,0.00,629.00,VWS V15.00,2017-09-19 17:31:00,
2017-09-19 10:36:00,61.6,34.4,29.99,North,355,0.0,11.0,36,0.00,,,0.00,628.00,VWS V15.00,2017-09-19 17:36:00,
2017-09-19 10:41:00,62.2,32.8,29.99,NNW,340,1.0,13.0,33,0.00,,,0.00,638.00,VWS V15.00,2017-09-19 17:41:00,
2017-09-19 10:46:00,62.4,33.7,29.99,West,281,3.0,13.0,34,0.00,,,0.00,650.00,VWS V15.00,2017-09-19 17:46:00,
2017-09-19 10:51:00,62.9,32.6,29.99,WNW,286,0.0,11.0,32,0.00,,,0.00,659.00,VWS V15.00,2017-09-19 17:51:00,
2017-09-19 10:56:00,63.2,33.6,29.99,NW,311,4.0,11.0,33,0.00,,,0.00,670.00,VWS V15.00,2017-09-19 17:56:00,
2017-09-19 11:01:00,63.7,33.3,29.99,NW,313,4.0,11.0,32,0.00,,,0.00,677.00,VWS V15.00,2017-09-19 18:01:00,
2017-09-19 11:06:00,64.0,33.6,29.99,NNW,327,3.0,11.0,32,0.00,,,0.00,684.00,VWS V15.00,2017-09-19 18:06:00,
2017-09-19 11:11:00,63.7,32.5,29.99,NNW,340,1.0,11.0,31,0.00,,,0.00,694.00,VWS V15.00,2017-09-19 18:11:00,
2017-09-19 11:16:00,63.5,32.3,29.99,NNW,331,0.0,13.0,31,0.00,,,0.00,703.00,VWS V15.00,2017-09-19 18:16:00,
2017-09-19 11:21:00,63.7,34.1,29.98,NW,321,1.0,5.0,33,0.00,,,0.00,708.00,VWS V15.00,2017-09-19 18:21:00,
2017-09-19 11:26:00,63.9,31.9,29.98,North,9,9.0,13.0,30,0.00,,,0.00,717.00,VWS V15.00,2017-09-19 18:26:00,
2017-09-19 11:31:00,64.2,31.3,29.98,NNW,342,9.0,13.0,29,0.00,,,0.00,722.00,VWS V15.00,2017-09-19 18:31:00,
2017-09-19 11:36:00,63.8,31.0,29.98,NNE,24,0.0,10.0,29,0.00,,,0.00,726.00,VWS V15.00,2017-09-19 18:36:00,
2017-09-19 11:41:00,64.5,31.6,29.99,North,350,6.0,10.0,29,0.00,,,0.00,733.00,VWS V15.00,2017-09-19 18:41:00,
2017-09-19 11:46:00,64.4,31.5,29.98,North,360,2.0,2.0,29,0.00,,,0.00,738.00,VWS V15.00,2017-09-19 18:46:00,
2017-09-19 11:51:00,65.4,32.3,29.98,WSW,254,0.0,6.0,29,0.00,,,0.00,745.00,VWS V15.00,2017-09-19 18:51:00,
2017-09-19 11:56:00,65.9,30.1,29.98,WNW,295,4.0,7.0,26,0.00,,,0.00,751.00,VWS V15.00,2017-09-19 18:56:00,
2017-09-19 12:01:00,65.8,30.0,29.98,NW,310,2.0,2.0,26,0.00,,,0.00,752.00,VWS V15.00,2017-09-19 19:01:00,
2017-09-19 12:06:00,67.0,31.0,29.98,WNW,294,4.0,6.0,26,0.00,,,0.00,759.00,VWS V15.00,2017-09-19 19:06:00,
2017-09-19 12:11:00,66.4,29.5,29.98,NNE,13,0.0,6.0,25,0.00,,,0.00,763.00,VWS V15.00,2017-09-19 19:11:00,
2017-09-19 12:16:00,66.7,31.7,29.98,WNW,293,0.0,0.0,27,0.00,,,0.00,765.00,VWS V15.00,2017-09-19 19:16:00,
2017-09-19 12:21:00,66.3,30.4,29.98,NNE,19,5.0,13.0,26,0.00,,,0.00,768.00,VWS V15.00,2017-09-19 19:21:00,
2017-09-19 12:26:00,65.1,30.3,29.97,NNE,26,0.0,13.0,27,0.00,,,0.00,768.00,VWS V15.00,2017-09-19 19:26:00,
2017-09-19 12:31:00,65.8,30.9,29.97,East,88,0.0,0.0,27,0.00,,,0.00,766.00,VWS V15.00,2017-09-19 19:31:00,
2017-09-19 12:36:00,67.0,31.0,29.97,NW,319,0.0,0.0,26,0.00,,,0.00,770.00,VWS V15.00,2017-09-19 19:36:00,
2017-09-19 12:41:00,67.2,30.2,29.97,NE,40,0.0,5.0,25,0.00,,,0.00,775.00,VWS V15.00,2017-09-19 19:41:00,
2017-09-19 12:46:00,66.7,29.8,29.97,North,355,0.0,2.0,25,0.00,,,0.00,775.00,VWS V15.00,2017-09-19 19:46:00,
2017-09-19 12:51:00,67.0,31.0,29.96,SSW,201,4.0,5.0,26,0.00,,,0.00,775.00,VWS V15.00,2017-09-19 19:51:00,
2017-09-19 12:56:00,67.9,31.8,29.96,SW,219,0.0,7.0,26,0.00,,,0.00,775.00,VWS V15.00,2017-09-19 19:56:00,
2017-09-19 13:01:00,68.8,31.6,29.96,SSW,200,1.0,5.0,25,0.00,,,0.00,773.00,VWS V15.00,2017-09-19 20:01:00,
2017-09-19 13:06:00,69.0,30.7,29.96,NW,309,7.0,7.0,24,0.00,,,0.00,775.00,VWS V15.00,2017-09-19 20:06:00,
2017-09-19 13:11:00,67.8,30.7,29.96,NNW,346,3.0,9.0,25,0.00,,,0.00,772.00,VWS V15.00,2017-09-19 20:11:00,
2017-09-19 13:16:00,67.8,30.7,29.96,NW,305,1.0,1.0,25,0.00,,,0.00,768.00,VWS V15.00,2017-09-19 20:16:00,
2017-09-19 13:21:00,68.1,31.0,29.95,WSW,254,5.0,8.0,25,0.00,,,0.00,766.00,VWS V15.00,2017-09-19 20:21:00,
2017-09-19 13:26:00,69.0,30.7,29.95,WSW,243,4.0,8.0,24,0.00,,,0.00,766.00,VWS V15.00,2017-09-19 20:26:00,
2017-09-19 13:31:00,69.4,31.1,29.95,SSW,197,0.0,0.0,24,0.00,,,0.00,761.00,VWS V15.00,2017-09-19 20:31:00,
2017-09-19 13:36:00,70.0,31.6,29.95,SSE,161,3.0,5.0,24,0.00,,,0.00,759.00,VWS V15.00,2017-09-19 20:36:00,
2017-09-19 13:41:00,70.3,30.8,29.95,NW,313,0.0,8.0,23,0.00,,,0.00,756.00,VWS V15.00,2017-09-19 20:41:00,
2017-09-19 13:46:00,69.1,30.8,29.94,NNE,12,7.0,8.0,24,0.00,,,0.00,751.00,VWS V15.00,2017-09-19 20:46:00,
2017-09-19 13:51:00,67.9,29.8,29.94,North,360,0.0,9.0,24,0.00,,,0.00,745.00,VWS V15.00,2017-09-19 20:51:00,
2017-09-19 13:56:00,68.1,32.0,29.94,ENE,73,1.0,9.0,26,0.00,,,0.00,740.00,VWS V15.00,2017-09-19 20:56:00,
2017-09-19 14:01:00,69.1,30.8,29.94,East,94,0.0,0.0,24,0.00,,,0.00,737.00,VWS V15.00,2017-09-19 21:01:00,
2017-09-19 14:06:00,69.2,29.9,29.94,NNE,13,4.0,7.0,23,0.00,,,0.00,729.00,VWS V15.00,2017-09-19 21:06:00,
2017-09-19 14:11:00,68.3,30.1,29.94,NNE,14,1.0,7.0,24,0.00,,,0.00,722.00,VWS V15.00,2017-09-19 21:11:00,
2017-09-19 14:16:00,68.9,30.6,29.94,NE,42,0.0,0.0,24,0.00,,,0.00,717.00,VWS V15.00,2017-09-19 21:16:00,
2017-09-19 14:21:00,70.3,30.8,29.94,East,92,5.0,5.0,23,0.00,,,0.00,710.00,VWS V15.00,2017-09-19 21:21:00,
2017-09-19 14:26:00,69.8,30.4,29.94,ENE,57,0.0,5.0,23,0.00,,,0.00,707.00,VWS V15.00,2017-09-19 21:26:00,
2017-09-19 14:31:00,69.9,31.5,29.93,ENE,57,0.0,0.0,24,0.00,,,0.00,694.00,VWS V15.00,2017-09-19 21:31:00,
2017-09-19 14:37:00,70.4,30.9,29.93,NW,322,2.0,5.0,23,0.00,,,0.00,686.00,VWS V15.00,2017-09-19 21:37:00,
2017-09-19 14:42:00,70.0,30.5,29.93,NNW,333,1.0,7.0,23,0.00,,,0.00,677.00,VWS V15.00,2017-09-19 21:42:00,
2017-09-19 14:47:00,69.8,30.4,29.93,NW,326,0.0,0.0,23,0.00,,,0.00,670.00,VWS V15.00,2017-09-19 21:47:00,
2017-09-19 14:57:00,69.9,29.4,29.93,ENE,67,3.0,5.0,22,0.00,,,0.00,652.00,VWS V15.00,2017-09-19 21:57:00,
2017-09-19 15:02:00,70.0,30.5,29.93,ESE,108,3.0,3.0,23,0.00,,,0.00,643.00,VWS V15.00,2017-09-19 22:02:00,
2017-09-19 15:07:00,70.4,30.9,29.93,East,94,0.0,4.0,23,0.00,,,0.00,631.00,VWS V15.00,2017-09-19 22:07:00,
2017-09-19 15:12:00,71.4,30.6,29.93,ESE,121,0.0,4.0,22,0.00,,,0.00,621.00,VWS V15.00,2017-09-19 22:12:00,
2017-09-19 15:17:00,71.7,30.9,29.93,North,355,0.0,4.0,22,0.00,,,0.00,612.00,VWS V15.00,2017-09-19 22:17:00,
2017-09-19 15:22:00,71.3,30.5,29.93,NE,39,0.0,4.0,22,0.00,,,0.00,601.00,VWS V15.00,2017-09-19 22:22:00,
2017-09-19 15:27:00,70.8,30.1,29.92,NE,50,0.0,5.0,22,0.00,,,0.00,585.00,VWS V15.00,2017-09-19 22:27:00,
2017-09-19 15:32:00,70.8,32.3,29.92,NE,54,0.0,1.0,24,0.00,,,0.00,575.00,VWS V15.00,2017-09-19 22:32:00,
2017-09-19 15:37:00,71.2,31.5,29.92,ESE,116,7.0,8.0,23,0.00,,,0.00,563.00,VWS V15.00,2017-09-19 22:37:00,
2017-09-19 15:42:00,71.3,31.6,29.92,East,100,0.0,9.0,23,0.00,,,0.00,550.00,VWS V15.00,2017-09-19 22:42:00,
2017-09-19 15:47:00,71.2,30.4,29.92,East,79,5.0,7.0,22,0.00,,,0.00,538.00,VWS V15.00,2017-09-19 22:47:00,
2017-09-19 15:52:00,71.0,32.4,29.92,SE,124,0.0,8.0,24,0.00,,,0.00,524.00,VWS V15.00,2017-09-19 22:52:00,
2017-09-19 15:57:00,71.0,32.4,29.92,SE,126,1.0,9.0,24,0.00,,,0.00,512.00,VWS V15.00,2017-09-19 22:57:00,
2017-09-19 16:00:00,71.2,32.6,29.92,SE,135,3.0,9.0,24,0.00,,,0.00,519.00,VWS V15.00,2017-09-19 23:00:00,
2017-09-19 16:21:00,70.2,31.8,29.91,ENE,77,7.0,7.0,24,0.00,,,0.00,445.00,VWS V15.00,2017-09-19 23:21:00,
2017-09-19 16:26:00,69.7,32.3,29.91,ESE,115,3.0,11.0,25,0.00,,,0.00,431.00,VWS V15.00,2017-09-19 23:26:00,
2017-09-19 16:31:00,69.5,31.2,29.91,SE,144,0.0,3.0,24,0.00,,,0.00,415.00,VWS V15.00,2017-09-19 23:31:00,
2017-09-19 16:36:00,69.5,32.2,29.91,ENE,66,2.0,8.0,25,0.00,,,0.00,401.00,VWS V15.00,2017-09-19 23:36:00,
2017-09-19 16:37:00,69.4,32.1,29.91,ENE,67,5.0,8.0,25,0.00,,,0.00,397.00,VWS V15.00,2017-09-19 23:37:00,
2017-09-19 16:42:00,69.4,32.1,29.91,ENE,75,0.0,8.0,25,0.00,,,0.00,383.00,VWS V15.00,2017-09-19 23:42:00,
2017-09-19 16:47:00,69.3,32.0,29.91,SE,126,0.0,5.0,25,0.00,,,0.00,369.00,VWS V15.00,2017-09-19 23:47:00,
2017-09-19 16:52:00,69.1,31.8,29.92,ESE,122,0.0,10.0,25,0.00,,,0.00,353.00,VWS V15.00,2017-09-19 23:52:00,
2017-09-19 16:57:00,69.2,31.9,29.91,ESE,103,3.0,10.0,25,0.00,,,0.00,338.00,VWS V15.00,2017-09-19 23:57:00,
2017-09-19 17:02:00,69.2,31.9,29.91,ESE,121,5.0,7.0,25,0.00,,,0.00,322.00,VWS V15.00,2017-09-20 00:02:00,
2017-09-19 17:07:00,68.9,31.7,29.91,ESE,116,2.0,8.0,25,0.00,,,0.00,304.00,VWS V15.00,2017-09-20 00:07:00,
2017-09-19 17:12:00,68.9,32.6,29.91,SE,127,8.0,9.0,26,0.00,,,0.00,288.00,VWS V15.00,2017-09-20 00:12:00,
2017-09-19 17:17:00,68.8,32.5,29.92,ESE,108,4.0,7.0,26,0.00,,,0.00,274.00,VWS V15.00,2017-09-20 00:17:00,
2017-09-19 17:22:00,68.6,32.4,29.92,SE,130,1.0,8.0,26,0.00,,,0.00,257.00,VWS V15.00,2017-09-20 00:22:00,
2017-09-19 17:27:00,68.3,31.1,29.92,SE,125,3.0,8.0,25,0.00,,,0.00,237.00,VWS V15.00,2017-09-20 00:27:00,
2017-09-19 17:32:00,68.1,32.0,29.92,SSE,147,0.0,3.0,26,0.00,,,0.00,218.00,VWS V15.00,2017-09-20 00:32:00,
2017-09-19 17:37:00,68.1,32.0,29.92,SE,126,0.0,5.0,26,0.00,,,0.00,197.00,VWS V15.00,2017-09-20 00:37:00,
2017-09-19 17:42:00,67.8,31.7,29.92,SE,140,3.0,8.0,26,0.00,,,0.00,178.00,VWS V15.00,2017-09-20 00:42:00,
2017-09-19 17:47:00,67.4,32.3,29.92,SE,132,7.0,7.0,27,0.00,,,0.00,156.00,VWS V15.00,2017-09-20 00:47:00,
2017-09-19 17:52:00,67.2,32.1,29.92,ESE,123,0.0,7.0,27,0.00,,,0.00,141.00,VWS V15.00,2017-09-20 00:52:00,
2017-09-19 17:57:00,67.0,32.0,29.92,SE,131,0.0,7.0,27,0.00,,,0.00,121.00,VWS V15.00,2017-09-20 00:57:00,
2017-09-19 18:02:00,66.7,31.7,29.92,SE,126,2.0,4.0,27,0.00,,,0.00,104.00,VWS V15.00,2017-09-20 01:02:00,
2017-09-19 18:07:00,66.5,32.4,29.92,ESE,123,0.0,4.0,28,0.00,,,0.00,86.00,VWS V15.00,2017-09-20 01:07:00,
2017-09-19 18:12:00,66.3,32.2,29.92,SE,124,0.0,4.0,28,0.00,,,0.00,70.00,VWS V15.00,2017-09-20 01:12:00,
2017-09-19 18:17:00,66.0,32.0,29.92,SE,126,0.0,3.0,28,0.00,,,0.00,54.00,VWS V15.00,2017-09-20 01:17:00,
2017-09-19 18:22:00,65.7,31.7,29.93,SE,132,0.0,7.0,28,0.00,,,0.00,42.00,VWS V15.00,2017-09-20 01:22:00,
2017-09-19 18:27:00,65.3,31.4,29.93,ESE,122,0.0,7.0,28,0.00,,,0.00,28.00,VWS V15.00,2017-09-20 01:27:00,
2017-09-19 18:32:00,65.1,31.2,29.93,ESE,121,0.0,0.0,28,0.00,,,0.00,21.00,VWS V15.00,2017-09-20 01:32:00,
2017-09-19 18:37:00,64.9,31.9,29.93,ESE,106,0.0,0.0,29,0.00,,,0.00,16.00,VWS V15.00,2017-09-20 01:37:00,
2017-09-19 18:42:00,64.7,32.6,29.93,ESE,106,0.0,0.0,30,0.00,,,0.00,12.00,VWS V15.00,2017-09-20 01:42:00,
2017-09-19 18:47:00,64.3,32.2,29.93,ESE,106,0.0,0.0,30,0.00,,,0.00,11.00,VWS V15.00,2017-09-20 01:47:00,
2017-09-19 18:52:00,63.5,33.1,29.93,ESE,106,0.0,0.0,32,0.00,,,0.00,7.00,VWS V15.00,2017-09-20 01:52:00,
2017-09-19 18:57:00,62.4,33.7,29.93,ESE,106,0.0,0.0,34,0.00,,,0.00,5.00,VWS V15.00,2017-09-20 01:57:00,
2017-09-19 19:02:00,61.8,33.2,29.93,ESE,106,0.0,0.0,34,0.00,,,0.00,0.00,VWS V15.00,2017-09-20 02:02:00,
2017-09-19 19:07:00,61.3,33.4,29.94,ESE,106,0.0,0.0,35,0.00,,,0.00,0.00,VWS V15.00,2017-09-20 02:07:00,
2017-09-19 19:12:00,61.3,33.4,29.94,ESE,106,0.0,0.0,35,0.00,,,0.00,0.00,VWS V15.00,2017-09-20 02:12:00,
2017-09-19 19:17:00,61.2,33.3,29.94,ESE,106,0.0,0.0,35,0.00,,,0.00,0.00,VWS V15.00,2017-09-20 02:17:00,
2017-09-19 19:22:00,61.0,33.9,29.94,ESE,106,0.0,0.0,36,0.00,,,0.00,0.00,VWS V15.00,2017-09-20 02:22:00,
2017-09-19 19:27:00,60.6,34.2,29.94,ESE,106,0.0,0.0,37,0.00,,,0.00,0.00,VWS V15.00,2017-09-20 02:27:00,
2017-09-19 19:32:00,60.3,33.9,29.95,ESE,106,0.0,0.0,37,0.00,,,0.00,0.00,VWS V15.00,2017-09-20 02:32:00,
2017-09-19 19:37:00,60.0,35.0,29.94,ESE,106,0.0,0.0,39,0.00,,,0.00,0.00,VWS V15.00,2017-09-20 02:37:00,
2017-09-19 19:42:00,59.6,34.6,29.95,ESE,106,0.0,0.0,39,0.00,,,0.00,0.00,VWS V15.00,2017-09-20 02:42:00,
2017-09-19 19:47:00,58.9,34.0,29.95,ESE,106,0.0,0.0,39,0.00,,,0.00,0.00,VWS V15.00,2017-09-20 02:47:00,
2017-09-19 19:52:00,58.0,34.5,29.95,ESE,106,0.0,0.0,41,0.00,,,0.00,0.00,VWS V15.00,2017-09-20 02:52:00,
2017-09-19 19:57:00,57.6,35.3,29.95,ESE,106,0.0,0.0,43,0.00,,,0.00,0.00,VWS V15.00,2017-09-20 02:57:00,
2017-09-19 20:02:00,57.3,35.0,29.95,ESE,106,0.0,0.0,43,0.00,,,0.00,0.00,VWS V15.00,2017-09-20 03:02:00,
2017-09-19 20:07:00,57.1,34.8,29.95,ESE,106,0.0,0.0,43,0.00,,,0.00,0.00,VWS V15.00,2017-09-20 03:07:00,
2017-09-19 20:13:00,56.7,34.5,29.96,ESE,106,0.0,0.0,43,0.00,,,0.00,0.00,VWS V15.00,2017-09-20 03:13:00,
2017-09-19 20:18:00,56.0,34.4,29.96,ESE,106,0.0,0.0,44,0.00,,,0.00,0.00,VWS V15.00,2017-09-20 03:18:00,
2017-09-19 20:21:00,55.1,34.2,29.95,ESE,106,0.0,0.0,45,0.00,,,0.00,0.00,VWS V15.00,2017-09-20 03:21:00,
2017-09-19 20:24:00,54.4,35.1,29.77,ESE,106,0.0,0.0,48,0.00,,,0.00,0.00,VWS V15.00,2017-09-20 03:24:00,
2017-09-19 20:26:00,53.8,35.6,29.96,ESE,106,0.0,0.0,50,0.00,,,0.00,0.00,VWS V15.00,2017-09-20 03:26:00,
2017-09-19 20:27:00,53.7,35.5,29.78,ESE,106,0.0,0.0,50,0.00,,,0.00,0.00,VWS V15.00,2017-09-20 03:27:00,
2017-09-19 20:29:00,53.4,35.2,29.96,ESE,106,0.0,0.0,50,0.00,,,0.00,0.00,VWS V15.00,2017-09-20 03:29:00,
2017-09-19 20:34:00,53.2,36.0,29.96,ESE,106,0.0,0.0,52,0.00,,,0.00,0.00,VWS V15.00,2017-09-20 03:34:00,
2017-09-19 20:39:00,53.2,35.6,29.96,ESE,106,0.0,0.0,51,0.00,,,0.00,0.00,VWS V15.00,2017-09-20 03:39:00,
2017-09-19 20:44:00,53.2,35.1,29.97,ESE,106,0.0,0.0,50,0.00,,,0.00,0.00,VWS V15.00,2017-09-20 03:44:00,
2017-09-19 20:49:00,53.2,35.1,29.97,ESE,106,0.0,0.0,50,0.00,,,0.00,0.00,VWS V15.00,2017-09-20 03:49:00,
2017-09-19 20:54:00,53.1,35.5,29.97,ESE,106,0.0,0.0,51,0.00,,,0.00,0.00,VWS V15.00,2017-09-20 03:54:00,
2017-09-19 20:59:00,53.0,35.9,29.97,ESE,106,0.0,0.0,52,0.00,,,0.00,0.00,VWS V15.00,2017-09-20 03:59:00,
2017-09-19 21:04:00,52.7,36.1,29.97,ESE,106,0.0,0.0,53,0.00,,,0.00,0.00,VWS V15.00,2017-09-20 04:04:00,
2017-09-19 21:09:00,52.5,35.9,29.97,ESE,106,0.0,0.0,53,0.00,,,0.00,0.00,VWS V15.00,2017-09-20 04:09:00,
2017-09-19 21:14:00,52.4,36.3,29.97,ESE,106,0.0,0.0,54,0.00,,,0.00,0.00,VWS V15.00,2017-09-20 04:14:00,
2017-09-19 21:19:00,52.3,35.7,29.79,ESE,106,0.0,0.0,53,0.00,,,0.00,0.00,VWS V15.00,2017-09-20 04:19:00,
2017-09-19 21:24:00,52.1,35.5,29.79,ESE,106,0.0,0.0,53,0.00,,,0.00,0.00,VWS V15.00,2017-09-20 04:24:00,
2017-09-19 21:29:00,52.0,35.4,29.79,ESE,106,0.0,0.0,53,0.00,,,0.00,0.00,VWS V15.00,2017-09-20 04:29:00,
2017-09-19 21:34:00,51.9,35.3,29.79,ESE,106,0.0,0.0,53,0.00,,,0.00,0.00,VWS V15.00,2017-09-20 04:34:00,
2017-09-19 21:39:00,51.9,34.8,29.80,ESE,106,0.0,0.0,52,0.00,,,0.00,0.00,VWS V15.00,2017-09-20 04:39:00,
2017-09-19 21:44:00,51.8,34.8,29.80,ESE,106,0.0,0.0,52,0.00,,,0.00,0.00,VWS V15.00,2017-09-20 04:44:00,
2017-09-19 21:49:00,51.9,34.4,29.80,East,93,0.0,0.0,51,0.00,,,0.00,0.00,VWS V15.00,2017-09-20 04:49:00,
2017-09-19 21:54:00,52.3,33.7,29.80,ENE,66,0.0,0.0,49,0.00,,,0.00,0.00,VWS V15.00,2017-09-20 04:54:00,
2017-09-19 21:59:00,52.9,33.2,29.80,NE,54,0.0,0.0,47,0.00,,,0.00,0.00,VWS V15.00,2017-09-20 04:59:00,
2017-09-19 22:04:00,53.6,33.3,29.80,NE,51,0.0,0.0,46,0.00,,,0.00,0.00,VWS V15.00,2017-09-20 05:04:00,
2017-09-19 22:09:00,54.4,33.5,29.80,NNW,327,0.0,0.0,45,0.00,,,0.00,0.00,VWS V15.00,2017-09-20 05:09:00,
2017-09-19 22:14:00,54.9,33.4,29.80,WNW,300,0.0,0.0,44,0.00,,,0.00,0.00,VWS V15.00,2017-09-20 05:14:00,
2017-09-19 22:19:00,55.4,33.3,29.80,WNW,287,0.0,0.0,43,0.00,,,0.00,0.00,VWS V15.00,2017-09-20 05:19:00,
2017-09-19 22:24:00,55.8,33.1,29.80,WNW,294,4.0,6.0,42,0.00,,,0.00,0.00,VWS V15.00,2017-09-20 05:24:00,
2017-09-19 22:29:00,56.5,33.1,29.80,WNW,298,2.0,8.0,41,0.00,,,0.00,0.00,VWS V15.00,2017-09-20 05:29:00,
2017-09-19 22:34:00,57.4,33.3,29.80,WNW,285,0.0,7.0,40,0.00,,,0.00,0.00,VWS V15.00,2017-09-20 05:34:00,
2017-09-19 22:39:00,57.8,33.0,29.80,WNW,284,0.0,8.0,39,0.00,,,0.00,0.00,VWS V15.00,2017-09-20 05:39:00,
2017-09-19 22:44:00,58.1,32.7,29.80,WNW,286,2.0,8.0,38,0.00,,,0.00,0.00,VWS V15.00,2017-09-20 05:44:00,
2017-09-19 22:49:00,58.0,33.2,29.80,West,271,5.0,5.0,39,0.00,,,0.00,0.00,VWS V15.00,2017-09-20 05:49:00,
2017-09-19 22:54:00,57.7,32.9,29.80,West,271,2.0,6.0,39,0.00,,,0.00,0.00,VWS V15.00,2017-09-20 05:54:00,
2017-09-19 22:59:00,57.6,32.8,29.80,WSW,252,4.0,8.0,39,0.00,,,0.00,0.00,VWS V15.00,2017-09-20 05:59:00,